Time;durP1;ratioP1;P1;durP2;ratioP2;P2;SDS_P1;SDS_P2;PMS_P1;PMS_P2;Temp;Humidity;BMP_temperature;BMP_pressure;BME280_temperature;BME280_humidity;BME280_pressure;Samples;Min_cycle;Max_cycle;Signal;HPM_P1;HPM_P2
2021/03/18 02:15:51;;;;;;;;;;;0.00;99.90;;;-1.24;85.04;96101.84;10189552;28;2035;-87
2021/03/18 02:21:30;;;;;;;;;;;;;;;;;;;;;
2021/03/18 02:32:48;;;;;;;;;;;0.70;99.90;;;-1.48;85.83;96092.53;10304677;28;2431;-88
2021/03/18 02:44:04;;;;;;;;;;;-0.30;99.90;;;-1.53;86.48;96099.38;10269820;28;2044;-87
2021/03/18 03:07:35;;;;;;;;;;;-0.30;99.90;;;-1.34;85.70;96111.91;10222164;28;2002;-86
2021/03/18 03:12:52;;;;;;;;;;;0.50;99.90;;;-1.31;84.87;96122.09;10302566;28;2590;-86
2021/03/18 03:24:10;;;;;;;;;;;-0.40;99.90;;;-1.30;85.67;96121.06;10151780;29;1876;-86
2021/03/18 03:47:05;;;;;;;;;;;1.00;99.90;;;-1.21;85.61;96148.97;10153052;29;2658;-86
2021/03/18 03:58:31;;;;;;;;;;;-0.10;99.90;;;-1.32;84.80;96146.84;10275451;28;2468;-86
2021/03/18 04:03:51;;;;;;;;;;;1.10;99.90;;;-1.27;84.81;96143.59;10259528;28;2618;-84
2021/03/18 04:09:21;;;;;;;;;;;0.90;99.90;;;-1.09;85.13;96142.13;10315442;28;2524;-86
2021/03/18 04:38:02;;;;;;;;;;;1.40;99.90;;;-1.09;83.80;96157.97;10253712;28;2842;-86
2021/03/18 04:43:57;;;;;;;;;;;0.00;99.90;;;-1.11;84.36;96154.72;10333901;28;2634;-86
2021/03/18 04:49:28;;;;;;;;;;;-0.20;99.90;;;-1.13;84.33;96155.91;10299202;28;2578;-86
2021/03/18 04:55:20;;;;;;;;;;;1.30;99.90;;;-1.31;85.24;96158.19;10295897;28;2476;-85
2021/03/18 05:00:58;;;;;;;;;;;-0.20;99.90;;;-1.28;86.22;96161.25;10319902;28;2162;-83
2021/03/18 05:12:01;;;;;;;;;;;-0.30;99.90;;;-1.21;85.92;96151.59;10316965;28;2533;-85
2021/03/18 05:17:13;;;;;;;;;;;-0.10;99.90;;;-1.37;85.22;96154.50;10295545;28;1985;-85
2021/03/18 05:22:25;;;;;;;;;;;0.30;99.90;;;-1.20;86.90;96160.34;10354085;28;2547;-86
2021/03/18 05:44:31;;;;;;;;;;;0.70;99.90;;;-0.87;86.46;96165.84;10239423;29;1924;-84
2021/03/18 06:55:52;;;;;;;;;;;0.70;99.90;;;-0.11;84.12;96174.63;9955850;29;2516;-84
2021/03/18 07:01:04;;;;;;;;;;;2.00;99.90;;;-0.40;83.70;96173.03;9981889;29;2467;-85
2021/03/18 07:06:07;;;;;;;;;;;2.10;99.90;;;-0.78;84.23;96169.16;10059014;29;2640;-83
2021/03/18 07:11:09;;;;;;;;;;;0.40;99.90;;;-0.35;84.45;96168.00;10201711;29;2584;-84
2021/03/18 07:16:11;;;;;;;;;;;0.50;99.90;;;-0.55;84.26;96170.53;10215856;28;2648;-84
2021/03/18 07:21:13;;;;;;;;;;;0.60;99.90;;;-0.38;84.37;96175.47;10297993;28;2828;-83
2021/03/18 07:26:15;;;;;;;;;;;0.90;99.90;;;-0.56;84.29;96168.09;10298886;28;2534;-86
2021/03/18 07:31:17;;;;;;;;;;;0.50;99.90;;;-0.15;84.57;96168.09;10293391;28;3126;-84
2021/03/18 07:36:19;;;;;;;;;;;2.00;99.90;;;-0.08;82.70;96168.91;10301923;28;2483;-84
2021/03/18 07:41:21;;;;;;;;;;;1.50;99.90;;;0.28;82.95;96170.47;10302782;28;2484;-83
2021/03/18 07:46:23;;;;;;;;;;;2.30;99.90;;;0.15;82.23;96175.72;10294369;28;2811;-82
2021/03/18 07:51:25;;;;;;;;;;;2.90;99.90;;;0.12;82.46;96174.28;10328676;28;2412;-84
2021/03/18 07:56:27;;;;;;;;;;;3.30;99.90;;;-0.04;83.76;96172.81;10320439;28;2805;-83
2021/03/18 08:01:29;;;;;;;;;;;2.00;99.90;;;0.06;82.63;96172.44;10299685;28;2817;-83
2021/03/18 08:06:32;;;;;;;;;;;2.10;99.90;;;0.59;82.65;96171.78;10293707;28;2493;-83
2021/03/18 08:11:34;;;;;;;;;;;1.20;99.90;;;0.51;81.10;96170.13;10301305;28;2781;-83
2021/03/18 08:16:36;;;;;;;;;;;3.00;99.90;;;0.77;81.67;96172.00;10296740;28;2779;-84
2021/03/18 08:21:40;;;;;;;;;;;3.30;99.90;;;1.46;78.42;96168.09;10298529;28;2530;-84
2021/03/18 08:26:45;;;;;;;;;;;3.10;99.90;;;1.66;76.21;96163.56;10305205;28;2571;-85
2021/03/18 08:31:47;;;;;;;;;;;2.40;99.90;;;1.89;76.44;96163.06;10276351;28;2536;-83
2021/03/18 08:36:53;;;;;;;;;;;4.40;99.90;;;2.09;74.89;96158.50;10306888;28;2590;-84
2021/03/18 08:41:55;;;;;;;;;;;4.40;99.90;;;2.34;72.62;96165.75;10313588;28;2424;-83
2021/03/18 08:47:00;;;;;;;;;;;4.80;99.90;;;2.97;73.22;96157.78;10303325;28;2471;-84
2021/03/18 08:52:02;;;;;;;;;;;4.00;99.90;;;2.58;70.66;96151.72;10308310;28;2599;-83
2021/03/18 08:57:05;;;;;;;;;;;4.80;99.90;;;2.63;73.77;96159.88;10301750;28;2481;-84
2021/03/18 09:02:08;;;;;;;;;;;4.60;99.90;;;2.78;71.48;96161.41;10309142;28;2507;-84
2021/03/18 09:07:11;;;;;;;;;;;5.40;99.90;;;3.18;70.20;96156.59;10327631;28;2610;-82
2021/03/18 09:12:15;;;;;;;;;;;3.80;99.90;;;2.87;69.37;96162.78;10304524;28;2471;-85
2021/03/18 09:17:19;;;;;;;;;;;3.90;99.90;;;2.76;72.79;96153.66;10309963;28;2486;-83
2021/03/18 09:22:42;;;;;;;;;;;4.70;99.90;;;3.25;71.09;96152.84;10306764;28;2558;-83
2021/03/18 09:27:44;;;;;;;;;;;3.90;99.90;;;2.37;69.70;96160.03;10323005;28;2489;-84
2021/03/18 09:32:46;;;;;;;;;;;3.70;99.90;;;2.91;70.31;96146.19;10312992;28;2861;-84
2021/03/18 09:37:55;;;;;;;;;;;5.10;99.90;;;2.83;70.99;96149.09;10307853;28;2584;-82
2021/03/18 09:42:58;;;;;;;;;;;5.00;99.90;;;2.59;72.11;96142.72;10316703;28;2384;-82
2021/03/18 09:48:00;;;;;;;;;;;4.20;99.90;;;3.02;71.88;96136.69;10315227;28;2515;-85
2021/03/18 09:53:05;;;;;;;;;;;5.70;99.90;;;2.85;70.04;96131.09;10304675;28;2867;-83
2021/03/18 09:58:10;;;;;;;;;;;4.30;99.90;;;2.78;70.30;96121.56;10283200;28;2542;-85
2021/03/18 10:03:12;;;;;;;;;;;4.90;99.90;;;3.07;69.26;96128.91;10291120;28;3000;-84
2021/03/18 10:08:21;;;;;;;;;;;5.90;99.90;;;3.23;67.93;96120.38;10297680;28;2527;-85
2021/03/18 10:13:34;;;;;;;;;;;5.00;99.90;;;3.81;68.04;96111.16;10285491;28;2759;-84
2021/03/18 10:18:36;;;;;;;;;;;5.70;99.90;;;3.93;64.50;96100.59;10287324;28;4150;-84
2021/03/18 10:23:38;;;;;;;;;;;5.80;99.90;;;3.37;64.98;96091.00;10341407;28;2431;-84
2021/03/18 10:28:41;;;;;;;;;;;6.10;99.90;;;3.25;65.68;96094.41;10349426;28;2420;-83
2021/03/18 10:33:50;;;;;;;;;;;5.50;99.90;;;3.13;64.69;96095.34;10303142;28;2647;-81
2021/03/18 10:38:55;;;;;;;;;;;4.10;99.90;;;3.27;64.93;96082.75;10304708;28;2489;-82
2021/03/18 10:44:05;;;;;;;;;;;6.50;99.90;;;3.78;61.65;96074.41;10331172;28;2038;-82
2021/03/18 10:49:11;;;;;;;;;;;6.00;99.90;;;4.45;57.67;96063.66;10334830;28;2879;-81
2021/03/18 10:54:19;;;;;;;;;;;5.20;99.90;;;5.22;58.98;96061.81;10346221;28;2447;-83
2021/03/18 10:59:21;;;;;;;;;;;7.00;99.90;;;5.47;55.58;96042.03;10318310;28;2459;-84
2021/03/18 11:04:26;;;;;;;;;;;7.30;99.90;;;5.38;53.97;96050.41;10317337;28;2601;-85
2021/03/18 11:09:29;;;;;;;;;;;7.70;96.30;;;4.34;57.89;96055.44;10350783;28;2411;-83
2021/03/18 11:14:34;;;;;;;;;;;6.20;96.70;;;3.51;57.28;96048.13;10351161;28;2467;-80
2021/03/18 11:19:35;;;;;;;;;;;4.80;93.90;;;4.10;58.35;96040.44;10310086;28;2482;-85
2021/03/18 11:24:37;;;;;;;;;;;6.40;98.50;;;4.02;56.70;96030.91;10317941;28;2408;-84
2021/03/18 11:29:39;;;;;;;;;;;4.90;95.30;;;4.72;55.30;96027.63;10333495;28;2464;-84
2021/03/18 11:34:42;;;;;;;;;;;7.00;96.20;;;5.34;56.94;96024.44;10302032;28;2407;-81
2021/03/18 11:39:44;;;;;;;;;;;6.10;96.90;;;5.61;55.25;96014.09;10301602;28;2589;-85
2021/03/18 11:44:46;;;;;;;;;;;7.10;94.30;;;5.74;54.05;96005.81;10316536;28;2692;-86
2021/03/18 11:49:48;;;;;;;;;;;6.60;91.90;;;5.85;52.14;95996.97;10298786;28;2359;-83
2021/03/18 11:54:49;;;;;;;;;;;6.90;88.90;;;5.26;49.96;96001.63;10319475;28;2247;-84
2021/03/18 11:59:52;;;;;;;;;;;6.70;84.40;;;5.13;48.16;95993.88;10308114;28;2383;-84
2021/03/18 12:04:54;;;;;;;;;;;6.90;82.00;;;5.28;51.50;95990.72;10338150;28;2131;-83
2021/03/18 12:09:56;;;;;;;;;;;6.90;84.50;;;5.34;51.52;95987.97;10324307;28;2342;-85
2021/03/18 12:14:59;;;;;;;;;;;6.30;85.00;;;4.88;46.38;95986.97;10313316;28;2287;-84
2021/03/18 12:20:01;;;;;;;;;;;6.40;78.50;;;4.92;44.85;95976.66;10310803;28;1974;-84
2021/03/18 12:25:05;;;;;;;;;;;6.90;76.70;;;5.03;44.65;95967.03;10338840;28;2279;-84
2021/03/18 12:30:07;;;;;;;;;;;5.90;75.90;;;5.51;45.69;95968.56;10338407;28;2397;-84
2021/03/18 12:35:14;;;;;;;;;;;7.40;77.50;;;5.11;44.19;95974.66;10343563;28;2208;-86
2021/03/18 12:40:17;;;;;;;;;;;8.20;74.90;;;5.41;41.11;95961.19;10350144;28;1990;-83
2021/03/18 12:45:19;;;;;;;;;;;8.00;72.40;;;4.57;44.18;95952.69;10328532;28;1760;-84
2021/03/18 12:50:21;;;;;;;;;;;7.30;72.70;;;4.32;48.98;95951.03;10318399;28;2410;-86
2021/03/18 12:55:23;;;;;;;;;;;5.50;76.60;;;3.66;55.15;95948.56;10311839;28;1672;-85
2021/03/18 13:00:26;;;;;;;;;;;6.60;82.50;;;3.43;53.19;95946.63;10354381;28;2007;-84
2021/03/18 13:05:28;;;;;;;;;;;6.20;82.50;;;3.59;50.82;95934.56;10325039;28;2427;-84
2021/03/18 13:10:34;;;;;;;;;;;6.10;80.80;;;4.06;50.66;95924.84;10307602;28;2256;-86
2021/03/18 13:15:36;;;;;;;;;;;4.80;79.60;;;4.47;47.30;95923.19;10307773;28;2071;-84
2021/03/18 13:20:38;;;;;;;;;;;5.10;77.00;;;5.25;48.15;95897.94;10314865;28;2260;-84
2021/03/18 13:25:41;;;;;;;;;;;6.40;78.70;;;5.49;46.04;95901.34;10331507;28;2235;-86
2021/03/18 13:30:43;;;;;;;;;;;7.60;76.40;;;5.77;45.88;95890.63;10341115;28;2302;-84
2021/03/18 13:35:45;;;;;;;;;;;6.50;75.80;;;5.30;49.70;95892.72;10309151;28;2386;-84
2021/03/18 13:40:47;;;;;;;;;;;6.50;77.70;;;5.23;50.34;95890.19;10335947;28;2438;-85
2021/03/18 13:45:49;;;;;;;;;;;6.70;78.50;;;4.93;48.07;95886.91;10354020;28;1677;-84
2021/03/18 13:50:51;;;;;;;;;;;7.40;76.80;;;3.83;59.55;95900.91;10350080;28;2328;-83
2021/03/18 13:55:53;;;;;;;;;;;5.30;84.60;;;3.25;64.42;95897.81;10329763;28;2325;-84
2021/03/18 14:00:55;;;;;;;;;;;4.60;90.40;;;1.79;69.59;95901.13;10306332;28;2068;-85
2021/03/18 14:05:57;;;;;;;;;;;3.50;95.00;;;1.81;71.59;95900.91;10332522;28;2423;-83
2021/03/18 14:10:59;;;;;;;;;;;4.50;99.30;;;1.95;71.27;95904.25;10314020;28;2298;-81
2021/03/18 14:16:06;;;;;;;;;;;4.10;99.90;;;1.53;74.43;95910.06;10325994;28;2373;-83
2021/03/18 14:21:08;;;;;;;;;;;4.30;99.90;;;1.12;75.11;95907.03;10341236;28;1343;-82
2021/03/18 14:26:10;;;;;;;;;;;2.30;99.90;;;0.81;77.12;95904.09;10350390;28;2264;-85
2021/03/18 14:31:12;;;;;;;;;;;3.50;99.90;;;0.75;79.37;95901.47;10351140;28;2462;-83
2021/03/18 14:36:15;;;;;;;;;;;1.80;99.90;;;1.24;80.22;95900.06;10308215;28;2360;-83
2021/03/18 14:41:17;;;;;;;;;;;2.60;99.90;;;1.50;80.28;95889.28;10304390;28;2754;-83
2021/03/18 14:46:19;;;;;;;;;;;3.60;99.90;;;1.39;79.73;95883.88;10302123;28;2319;-84
2021/03/18 14:51:21;;;;;;;;;;;4.40;99.90;;;1.11;80.15;95892.19;10320848;28;2338;-85
2021/03/18 14:56:23;;;;;;;;;;;3.30;99.90;;;0.99;80.91;95884.88;10340779;28;2384;-86
2021/03/18 15:01:45;;;;;;;;;;;2.00;99.90;;;0.82;81.74;95867.84;10320918;28;2409;-83
2021/03/18 15:06:47;;;;;;;;;;;3.30;99.90;;;0.68;82.37;95874.22;10312074;28;2343;-84
2021/03/18 15:11:49;;;;;;;;;;;1.80;99.90;;;0.59;83.09;95872.84;10324295;28;2346;-81
2021/03/18 15:16:51;;;;;;;;;;;2.70;99.90;;;0.69;82.38;95865.25;10316269;28;2339;-84
2021/03/18 15:21:53;;;;;;;;;;;1.70;99.90;;;0.66;82.64;95853.28;10325940;28;2391;-85
2021/03/18 15:26:55;;;;;;;;;;;1.80;99.90;;;0.77;81.26;95855.28;10329033;28;2107;-81
2021/03/18 15:31:57;;;;;;;;;;;1.80;99.90;;;0.81;79.99;95845.88;10321068;28;2365;-82
2021/03/18 15:36:59;;;;;;;;;;;1.80;99.90;;;0.91;79.60;95841.97;10317002;28;2405;-85
2021/03/18 15:42:01;;;;;;;;;;;3.10;99.90;;;1.08;78.06;95838.63;10302888;28;2368;-82
2021/03/18 15:47:03;;;;;;;;;;;2.00;99.90;;;1.21;77.36;95836.91;10324890;28;2264;-82
2021/03/18 15:52:05;;;;;;;;;;;3.20;99.90;;;1.55;77.00;95833.84;10309116;28;2355;-83
2021/03/18 15:57:07;;;;;;;;;;;3.80;99.90;;;1.92;75.25;95828.66;10311383;28;2062;-83
2021/03/18 16:02:09;;;;;;;;;;;2.70;99.90;;;2.20;73.92;95822.03;10336379;28;2343;-82
2021/03/18 16:07:31;;;;;;;;;;;5.50;99.90;;;2.04;72.33;95821.59;10315317;28;2398;-84
2021/03/18 16:12:33;;;;;;;;;;;4.10;99.90;;;2.16;74.58;95819.84;10308741;28;2396;-82
2021/03/18 16:17:36;;;;;;;;;;;4.00;99.90;;;2.32;74.52;95817.63;10302006;28;1915;-82
2021/03/18 16:22:39;;;;;;;;;;;3.70;99.90;;;2.39;74.39;95826.34;10342847;28;1704;-83
2021/03/18 16:27:41;;;;;;;;;;;4.40;99.90;;;2.15;73.74;95826.16;10361873;28;1583;-83
2021/03/18 16:32:43;;;;;;;;;;;3.20;99.90;;;1.86;73.35;95816.25;10370282;28;1887;-82
2021/03/18 16:37:54;;;;;;;;;;;2.40;99.90;;;1.54;75.75;95826.09;10311061;28;2415;-85
2021/03/18 16:42:58;;;;;;;;;;;2.70;99.90;;;1.51;78.17;95816.72;10301411;28;2236;-82
2021/03/18 16:48:14;;;;;;;;;;;3.60;99.90;;;1.39;77.46;95818.44;10316867;28;2393;-83
2021/03/18 16:53:28;;;;;;;;;;;3.60;99.90;;;1.31;78.83;95821.38;10328297;28;2135;-82
2021/03/18 16:58:30;;;;;;;;;;;3.00;99.90;;;1.20;78.68;95808.81;10338722;28;1923;-80
2021/03/18 17:03:45;;;;;;;;;;;2.30;99.90;;;0.97;79.21;95810.19;10326570;28;2437;-81
2021/03/18 17:08:53;;;;;;;;;;;2.20;99.90;;;0.88;79.24;95813.28;10326602;28;2660;-83
2021/03/18 17:14:01;;;;;;;;;;;2.60;99.90;;;0.91;80.05;95816.31;10329459;28;2332;-83
2021/03/18 17:19:03;;;;;;;;;;;3.60;99.90;;;0.87;80.19;95809.81;10318140;28;2294;-84
2021/03/18 17:24:13;;;;;;;;;;;2.00;99.90;;;0.66;80.53;95818.06;10299799;28;2613;-84
2021/03/18 17:29:18;;;;;;;;;;;1.90;99.90;;;0.54;81.78;95821.38;10317905;28;2387;-83
2021/03/18 17:34:23;;;;;;;;;;;1.70;99.90;;;0.43;81.75;95807.97;10335913;28;2728;-83
2021/03/18 17:39:27;;;;;;;;;;;3.30;99.90;;;0.31;82.03;95809.66;10326343;28;2375;-83
2021/03/18 17:44:31;;;;;;;;;;;2.40;99.90;;;0.25;81.40;95806.00;10320323;28;2594;-84
2021/03/18 17:49:36;;;;;;;;;;;2.70;99.90;;;0.25;81.24;95806.00;10325952;28;2430;-83
2021/03/18 17:54:39;;;;;;;;;;;1.60;99.90;;;0.29;81.64;95809.06;10306746;28;2315;-86
2021/03/18 17:59:49;;;;;;;;;;;1.40;99.90;;;0.16;81.10;95807.25;10313726;28;2350;-83
2021/03/18 18:04:57;;;;;;;;;;;1.30;99.90;;;0.08;81.24;95802.22;10314591;28;2334;-85
2021/03/18 18:09:59;;;;;;;;;;;1.60;99.90;;;0.01;81.63;95806.69;10319064;28;2362;-81
2021/03/18 18:15:01;;;;;;;;;;;1.80;99.90;;;-0.09;81.78;95800.00;10310686;28;1614;-86
2021/03/18 18:20:06;;;;;;;;;;;2.90;99.90;;;-0.13;82.42;95800.59;10330879;28;2034;-85
2021/03/18 18:25:17;;;;;;;;;;;2.80;99.90;;;-0.09;82.79;95807.91;10336042;28;2271;-84
2021/03/18 18:30:24;;;;;;;;;;;2.50;99.90;;;-0.01;82.63;95798.94;10314771;28;2708;-87
2021/03/18 18:40:49;;;;;;;;;;;1.80;99.90;;;0.20;82.36;95782.03;10309292;28;2504;-86
2021/03/18 18:45:55;;;;;;;;;;;1.90;99.90;;;0.31;82.43;95784.00;10323665;28;2504;-87
2021/03/18 18:51:10;;;;;;;;;;;1.20;99.90;;;0.36;82.02;95776.28;10302487;28;2383;-83
2021/03/18 18:56:18;;;;;;;;;;;2.20;99.90;;;0.37;82.60;95777.91;10304685;28;2441;-86
2021/03/18 19:01:22;;;;;;;;;;;2.00;99.90;;;0.37;82.07;95775.25;10316276;28;2328;-84
2021/03/18 19:06:25;;;;;;;;;;;2.90;99.90;;;0.35;82.31;95772.00;10326684;28;2366;-86
2021/03/18 19:11:28;;;;;;;;;;;1.40;99.90;;;0.34;82.10;95766.94;10316087;28;2299;-84
2021/03/18 19:16:30;;;;;;;;;;;2.90;99.90;;;0.26;83.42;95762.72;10288545;28;2287;-84
2021/03/18 19:21:39;;;;;;;;;;;2.80;99.90;;;0.16;83.30;95764.97;10317716;28;2789;-86
2021/03/18 19:26:42;;;;;;;;;;;1.30;99.90;;;0.10;83.19;95755.22;10305324;28;1681;-85
2021/03/18 19:31:57;;;;;;;;;;;1.90;99.90;;;-0.01;83.57;95760.13;10305354;28;1923;-85
2021/03/18 19:37:10;;;;;;;;;;;;;;;;;;;;;
2021/03/18 19:42:18;;;;;;;;;;;1.10;99.90;;;-0.11;84.06;95754.47;10290079;28;1521;-84
2021/03/18 19:47:30;;;;;;;;;;;;;;;;;;;;;
2021/03/18 20:16:55;;;;;;;;;;;1.60;99.90;;;0.07;83.39;95740.59;10171306;29;1702;-85
2021/03/18 20:22:43;;;;;;;;;;;2.40;99.90;;;0.08;83.35;95736.94;10150616;29;1706;-85
2021/03/18 20:27:45;;;;;;;;;;;1.10;99.90;;;0.02;83.68;95732.50;10153030;29;1694;-85
2021/03/18 20:32:56;;;;;;;;;;;1.20;99.90;;;-0.07;83.30;95729.25;10158887;29;1969;-86
2021/03/18 20:38:00;;;;;;;;;;;1.10;99.90;;;-0.16;84.02;95727.84;10164005;29;1491;-86
2021/03/18 20:43:02;;;;;;;;;;;1.00;99.90;;;-0.18;84.27;95721.97;10182067;29;1330;-85
2021/03/18 20:48:06;;;;;;;;;;;2.40;99.90;;;-0.21;84.40;95714.44;10329190;28;1507;-85
2021/03/18 20:53:12;;;;;;;;;;;2.70;99.90;;;-0.19;84.67;95715.06;10366481;28;1899;-86
2021/03/18 21:09:54;;;;;;;;;;;2.70;99.90;;;-0.29;85.05;95719.97;10369802;28;1890;-87
2021/03/18 21:14:59;;;;;;;;;;;0.80;99.90;;;-0.31;85.05;95704.34;10332640;28;1576;-87
2021/03/18 21:20:02;;;;;;;;;;;1.40;99.90;;;-0.29;84.54;95701.47;10330496;28;1439;-86
2021/03/18 21:25:05;;;;;;;;;;;0.70;99.90;;;-0.24;84.54;95706.16;10327587;28;1671;-88
2021/03/18 21:30:08;;;;;;;;;;;1.90;99.90;;;-0.21;84.87;95706.53;10328974;28;1946;-86
2021/03/18 21:35:11;;;;;;;;;;;2.00;99.90;;;-0.22;84.26;95704.91;10327217;28;1679;-88
2021/03/18 21:40:14;;;;;;;;;;;0.80;99.90;;;-0.17;84.23;95702.47;10366743;28;1546;-87
2021/03/18 21:45:19;;;;;;;;;;;2.30;99.90;;;-0.13;83.66;95703.66;10343946;28;1522;-88
2021/03/18 21:50:24;;;;;;;;;;;2.60;99.90;;;-0.13;83.84;95703.66;10348489;28;2124;-86
2021/03/18 21:55:29;;;;;;;;;;;2.30;99.90;;;-0.14;84.20;95696.75;10354752;28;2124;-87
2021/03/18 22:00:33;;;;;;;;;;;1.00;99.90;;;-0.08;83.85;95690.63;10353928;28;1746;-86
2021/03/18 22:05:36;;;;;;;;;;;2.60;99.90;;;-0.10;83.99;95697.97;10338732;28;2109;-86
2021/03/18 22:11:02;;;;;;;;;;;2.30;99.90;;;-0.08;84.29;95684.53;10382742;23;3562;-87
2021/03/18 22:16:05;;;;;;;;;;;1.00;99.90;;;-0.10;84.47;95683.94;10359276;28;2020;-85
2021/03/18 22:21:12;;;;;;;;;;;2.00;99.90;;;-0.06;84.61;95683.31;10328477;28;1689;-88
2021/03/18 22:26:17;;;;;;;;;;;1.00;99.90;;;-0.08;84.47;95679.25;10304441;28;1647;-89
2021/03/18 22:31:25;;;;;;;;;;;1.00;99.90;;;-0.13;85.03;95687.78;10309731;28;1944;-88
2021/03/18 22:36:30;;;;;;;;;;;1.00;99.90;;;0.00;85.83;95686.97;10301257;28;2370;-88
2021/03/18 22:41:36;;;;;;;;;;;0.90;99.90;;;0.01;85.84;95666.63;10294523;28;1509;-88
2021/03/18 22:46:39;;;;;;;;;;;2.80;99.90;;;0.03;86.13;95668.03;10325905;28;1689;-86
2021/03/18 22:51:52;;;;;;;;;;;1.00;99.90;;;0.05;85.96;95662.53;10334218;28;2045;-87
2021/03/18 22:56:55;;;;;;;;;;;2.30;99.90;;;0.11;86.48;95667.78;10320207;28;2283;-88
2021/03/18 23:02:00;;;;;;;;;;;1.10;99.90;;;0.08;86.93;95662.13;10296685;28;1775;-89
2021/03/18 23:07:03;;;;;;;;;;;1.60;99.90;;;0.03;87.50;95662.75;10304022;23;3487;-86
2021/03/18 23:12:05;;;;;;;;;;;1.80;99.90;;;-0.06;88.38;95656.91;10275682;28;2044;-89
2021/03/18 23:17:14;;;;;;;;;;;1.00;99.90;;;-0.06;88.61;95654.25;10270002;28;2029;-89
2021/03/18 23:22:17;;;;;;;;;;;1.70;99.90;;;-0.06;89.03;95651.63;10261403;29;1273;-88
2021/03/18 23:27:20;;;;;;;;;;;2.60;99.90;;;-0.07;89.22;95647.31;10286737;28;1237;-87
2021/03/18 23:32:23;;;;;;;;;;;0.90;99.90;;;-0.09;90.03;95644.09;10268620;28;2260;-87
2021/03/18 23:37:26;;;;;;;;;;;1.00;99.90;;;-0.03;90.65;95648.53;10240296;29;1744;-88
2021/03/18 23:42:28;;;;;;;;;;;2.20;99.90;;;-0.06;89.80;95640.25;10239175;29;1835;-88
2021/03/18 23:47:30;;;;;;;;;;;2.10;99.90;;;-0.18;90.28;95640.09;10256358;29;2513;-87
2021/03/18 23:52:38;;;;;;;;;;;2.50;99.90;;;-0.12;90.92;95644.53;10238948;29;2353;-85
2021/03/18 23:57:41;;;;;;;;;;;2.60;99.90;;;-0.17;90.54;95636.41;10255887;28;2353;-88
